Time;durP1;ratioP1;P1;durP2;ratioP2;P2;SDS_P1;SDS_P2;PMS_P1;PMS_P2;Temp;Humidity;BMP_temperature;BMP_pressure;BME280_temperature;BME280_humidity;BME280_pressure;Samples;Min_cycle;Max_cycle;Signal;HPM_P1;HPM_P2
2021/10/04 00:01:00;;;;;;;10.57;3.80;;;14.30;99.90;;;14.44;82.54;100942.25;4844234;29;20114;-72
2021/10/04 00:03:29;;;;;;;8.13;3.60;;;14.30;99.90;;;14.55;81.86;100929.63;4844102;29;20046;-73
2021/10/04 00:05:57;;;;;;;7.50;3.47;;;14.30;99.90;;;14.59;82.09;100935.78;4844038;29;20457;-73
2021/10/04 00:08:26;;;;;;;8.60;3.67;;;14.30;99.90;;;14.54;82.07;100937.66;4843015;29;20049;-73
2021/10/04 00:10:56;;;;;;;7.65;4.28;;;14.30;99.90;;;14.54;81.92;100943.00;4843969;29;20061;-73
2021/10/04 00:13:24;;;;;;;10.05;3.53;;;14.30;99.90;;;14.55;81.74;100944.72;4843141;29;20111;-73
2021/10/04 00:15:53;;;;;;;6.32;3.72;;;14.30;99.90;;;14.26;81.53;100887.59;4844196;29;20046;-73
2021/10/04 00:18:22;;;;;;;7.78;3.50;;;14.30;99.90;;;14.27;81.55;100881.38;4842820;29;20054;-73
2021/10/04 00:20:50;;;;;;;11.07;4.53;;;14.30;99.90;;;14.23;81.63;100886.75;4844107;29;20053;-73
2021/10/04 00:23:19;;;;;;;8.00;3.85;;;14.40;99.90;;;14.63;81.44;100938.34;4844327;29;20078;-73
2021/10/04 00:25:47;;;;;;;8.77;3.50;;;14.40;99.90;;;14.59;81.49;100942.00;4843652;29;20457;-73
2021/10/04 00:28:17;;;;;;;8.70;3.50;;;14.40;99.90;;;14.56;81.45;100954.44;4843666;29;20469;-73
2021/10/04 00:30:46;;;;;;;10.70;3.83;;;14.40;99.90;;;14.52;81.73;100963.44;4842856;29;20420;-72
2021/10/04 00:33:14;;;;;;;6.55;3.33;;;14.30;99.90;;;14.53;82.04;100974.03;4843636;29;20565;-73
2021/10/04 00:35:43;;;;;;;8.07;3.60;;;14.30;99.90;;;14.53;82.16;100970.50;4843565;29;20448;-73
2021/10/04 00:38:11;;;;;;;7.10;4.03;;;14.30;99.90;;;14.48;82.56;100976.78;4843593;29;20046;-73
2021/10/04 00:40:40;;;;;;;11.30;4.10;;;14.20;99.90;;;14.48;82.58;100992.75;4843456;29;20042;-73
2021/10/04 00:43:09;;;;;;;7.50;3.38;;;14.20;99.90;;;14.41;82.37;100999.09;4843584;29;20045;-74
2021/10/04 00:45:38;;;;;;;11.73;4.30;;;14.20;99.90;;;14.46;82.47;100977.72;4843294;29;20090;-73
2021/10/04 00:48:07;;;;;;;8.52;3.30;;;14.20;99.90;;;14.37;82.31;100948.59;4843276;29;20141;-73
2021/10/04 00:50:36;;;;;;;9.68;3.63;;;14.30;99.90;;;14.43;82.54;100970.69;4843294;29;20173;-73
2021/10/04 00:53:04;;;;;;;10.00;4.10;;;14.30;99.90;;;14.43;82.47;100983.97;4843528;29;20049;-73
2021/10/04 00:55:33;;;;;;;7.20;3.83;;;14.30;99.90;;;14.30;82.66;100945.16;4843040;29;20469;-73
2021/10/04 00:58:02;;;;;;;8.10;4.05;;;14.30;99.90;;;14.59;82.16;100981.03;4841548;29;20054;-73
2021/10/04 01:00:30;;;;;;;12.98;4.25;;;14.30;99.90;;;14.59;82.29;100973.94;4843185;29;20057;-73
2021/10/04 01:03:01;;;;;;;6.53;3.53;;;14.30;99.90;;;14.36;82.47;100949.53;4843241;29;20052;-73
2021/10/04 01:05:34;;;;;;;10.02;4.13;;;14.40;99.90;;;14.55;82.14;100992.63;4842952;29;20069;-73
2021/10/04 01:08:02;;;;;;;11.90;4.47;;;14.30;99.90;;;14.57;82.21;101004.13;4843273;29;20050;-73
2021/10/04 01:10:30;;;;;;;7.32;4.22;;;14.30;99.90;;;14.53;82.44;101000.66;4842898;29;20121;-73
2021/10/04 01:12:59;;;;;;;12.32;4.35;;;14.30;99.90;;;14.54;82.35;101009.53;4842841;29;20042;-73
2021/10/04 01:15:27;;;;;;;7.75;4.20;;;14.30;99.90;;;14.53;82.42;101011.31;4843179;29;20050;-73
2021/10/04 01:17:56;;;;;;;9.32;3.67;;;14.30;99.90;;;14.60;82.04;101012.94;4842800;29;20042;-73
2021/10/04 01:20:28;;;;;;;11.45;4.38;;;14.30;99.90;;;14.50;82.62;101019.34;4842789;29;20110;-73
2021/10/04 01:22:57;;;;;;;7.50;3.83;;;14.30;99.90;;;14.60;82.16;101015.59;4842746;29;20057;-73
2021/10/04 01:25:26;;;;;;;8.77;3.60;;;14.30;99.90;;;14.48;82.33;101006.97;4841704;29;20046;-73
2021/10/04 01:27:55;;;;;;;7.40;3.60;;;14.30;99.90;;;14.47;82.67;101006.09;4842662;29;20053;-73
2021/10/04 01:30:27;;;;;;;10.40;3.80;;;14.20;99.90;;;14.57;82.23;101010.34;4843214;29;20045;-72
2021/10/04 01:32:57;;;;;;;11.27;3.75;;;14.30;99.90;;;14.40;81.98;100993.81;4841641;29;20069;-73
2021/10/04 01:35:27;;;;;;;13.48;4.07;;;14.30;99.90;;;14.64;82.23;101019.97;4842928;29;20081;-73
2021/10/04 01:37:56;;;;;;;10.48;3.80;;;14.30;99.90;;;14.52;82.51;101024.66;4842602;29;20050;-73
2021/10/04 01:40:24;;;;;;;7.35;3.97;;;14.30;99.90;;;14.34;82.59;101007.22;4842319;29;20120;-73
2021/10/04 01:42:53;;;;;;;9.18;3.95;;;14.30;99.90;;;14.51;82.33;101038.84;4842457;29;20054;-73
2021/10/04 01:45:25;;;;;;;12.07;3.85;;;14.20;99.90;;;14.53;82.45;101040.59;4842709;29;20066;-73
2021/10/04 01:47:58;;;;;;;7.63;3.65;;;14.30;99.90;;;14.49;82.29;101022.91;4841510;29;20492;-73
2021/10/04 01:50:30;;;;;;;9.43;4.10;;;14.30;99.90;;;14.46;82.50;101029.16;4842735;29;20133;-73
2021/10/04 01:52:59;;;;;;;7.15;4.15;;;14.30;99.90;;;14.55;82.60;101022.81;4842750;29;20098;-73
2021/10/04 01:55:27;;;;;;;11.05;3.63;;;14.30;99.90;;;14.04;82.41;100950.06;4842405;29;20149;-72
2021/10/04 01:57:56;;;;;;;7.43;3.80;;;14.20;99.90;;;14.56;82.25;101018.34;4842559;29;20065;-73
2021/10/04 02:00:25;;;;;;;11.73;3.90;;;14.30;99.90;;;14.53;82.37;101029.06;4842528;29;20058;-73
2021/10/04 02:02:55;;;;;;;10.65;4.40;;;14.30;99.90;;;14.53;82.36;101018.41;4842291;29;20476;-73
2021/10/04 02:05:25;;;;;;;7.97;3.95;;;14.30;99.90;;;14.56;82.12;101013.91;4842740;29;20053;-73
2021/10/04 02:07:55;;;;;;;10.00;4.00;;;14.30;99.90;;;14.65;82.05;101023.53;4843339;29;20462;-73
2021/10/04 02:10:29;;;;;;;9.07;4.07;;;14.40;99.90;;;14.53;82.01;101010.44;4846523;29;20041;-73
2021/10/04 02:13:00;;;;;;;10.05;4.75;;;14.30;99.90;;;14.50;82.34;100999.84;4846237;29;20099;-73
2021/10/04 02:15:29;;;;;;;7.43;4.28;;;14.30;99.90;;;14.01;81.78;100904.03;4844799;29;20436;-73
2021/10/04 02:17:58;;;;;;;7.50;4.00;;;14.40;99.90;;;14.61;82.13;101019.16;4845955;29;20129;-73
2021/10/04 02:20:30;;;;;;;9.80;3.80;;;14.30;99.90;;;14.51;81.93;100991.81;4846426;29;20058;-72
2021/10/04 02:23:05;;;;;;;12.38;4.07;;;14.40;99.90;;;14.64;82.35;101017.31;4845899;29;20114;-73
2021/10/04 02:25:35;;;;;;;7.32;3.70;;;14.40;99.90;;;14.50;81.98;100984.72;4846043;29;20050;-73
2021/10/04 02:28:06;;;;;;;9.68;4.35;;;14.30;99.90;;;14.66;82.17;101004.84;4845902;29;20461;-73
2021/10/04 02:30:36;;;;;;;7.50;3.60;;;14.40;99.90;;;14.58;82.25;101003.22;4845862;29;20049;-72
2021/10/04 02:33:05;;;;;;;13.10;4.10;;;14.30;99.90;;;14.60;82.31;100996.09;4846446;29;20042;-72
2021/10/04 02:35:33;;;;;;;7.78;3.72;;;14.30;99.90;;;14.48;81.96;100992.75;4844739;29;20452;-73
2021/10/04 02:38:04;;;;;;;11.73;4.60;;;14.30;99.90;;;14.46;82.03;100983.91;4846255;29;20484;-73
2021/10/04 02:40:33;;;;;;;10.15;4.10;;;14.30;99.90;;;14.50;81.99;100979.41;4844832;29;20058;-72
2021/10/04 02:43:07;;;;;;;9.15;4.07;;;14.30;99.90;;;14.48;82.24;100991.88;4846599;29;20106;-72
2021/10/04 02:45:36;;;;;;;10.60;4.20;;;14.20;99.90;;;14.51;82.02;100990.94;4845358;29;20148;-72
2021/10/04 02:48:06;;;;;;;8.05;4.10;;;14.20;99.90;;;14.31;81.89;100962.91;4845428;29;20054;-72
2021/10/04 02:50:35;;;;;;;7.33;3.77;;;14.20;99.90;;;14.48;81.93;100982.09;4844722;29;20062;-72
2021/10/04 02:53:05;;;;;;;8.02;4.07;;;14.20;99.90;;;14.52;81.75;100982.91;4845742;29;20287;-72
2021/10/04 02:55:33;;;;;;;10.83;4.50;;;14.20;99.90;;;14.39;81.91;100970.75;4845994;29;20377;-72
2021/10/04 02:58:02;;;;;;;10.65;3.85;;;14.20;99.90;;;14.46;82.14;100996.34;4845337;29;20329;-72
2021/10/04 03:00:34;;;;;;;11.38;4.13;;;14.20;99.90;;;14.46;82.34;100999.88;4845169;29;20054;-72
2021/10/04 03:03:04;;;;;;;11.15;4.40;;;14.10;99.90;;;14.51;82.14;100999.81;4845245;29;20129;-72
2021/10/04 03:05:33;;;;;;;15.43;3.90;;;14.20;99.90;;;14.56;82.15;100994.38;4844265;29;20050;-72
2021/10/04 03:08:05;;;;;;;11.05;4.53;;;14.30;99.90;;;14.52;82.18;101001.56;4845272;29;20082;-72
2021/10/04 03:10:34;;;;;;;10.02;4.38;;;14.30;99.90;;;14.51;82.14;101020.22;4845376;29;20553;-72
2021/10/04 03:13:04;;;;;;;9.57;4.63;;;14.30;99.90;;;14.60;81.88;100998.75;4845067;29;20073;-72
2021/10/04 03:15:33;;;;;;;12.32;4.57;;;14.30;99.90;;;14.66;81.61;101012.84;4844849;29;20049;-72
2021/10/04 03:18:01;;;;;;;5.90;3.92;;;14.40;99.90;;;14.58;81.63;100993.47;4845200;29;20054;-73
2021/10/04 03:20:30;;;;;;;10.73;3.97;;;14.30;99.90;;;14.57;81.79;101013.00;4844377;29;20058;-72
2021/10/04 03:22:58;;;;;;;9.80;4.40;;;14.30;99.90;;;14.61;81.68;101000.50;4844784;29;20125;-72
2021/10/04 03:25:28;;;;;;;7.65;4.00;;;14.30;99.90;;;14.25;81.69;100962.97;4843814;29;20058;-73
2021/10/04 03:27:57;;;;;;;12.00;4.03;;;14.30;99.90;;;14.35;81.85;100977.91;4845167;29;20046;-74
2021/10/04 03:30:25;;;;;;;8.75;3.95;;;14.30;99.90;;;14.58;81.52;101014.75;4844695;29;20371;-72
2021/10/04 03:32:54;;;;;;;8.02;4.00;;;14.30;99.90;;;14.51;81.46;101015.78;4844631;29;20412;-72
2021/10/04 03:35:24;;;;;;;8.40;3.80;;;14.30;99.90;;;14.34;81.68;100996.59;4844859;29;20308;-74
2021/10/04 03:37:52;;;;;;;8.70;4.28;;;14.20;99.90;;;14.55;81.41;101025.47;4844486;29;20118;-72
2021/10/04 03:40:21;;;;;;;9.70;4.20;;;14.20;99.90;;;14.53;81.30;101016.63;4844584;29;20453;-72
2021/10/04 03:42:51;;;;;;;7.75;3.88;;;14.30;99.90;;;14.35;81.49;101006.31;4844769;29;20048;-72
2021/10/04 03:45:20;;;;;;;9.57;4.57;;;14.30;99.90;;;14.28;81.59;100999.34;4844688;29;20058;-72
2021/10/04 03:47:48;;;;;;;7.47;3.95;;;14.20;99.90;;;14.45;81.63;101029.19;4844378;29;20078;-72
2021/10/04 03:50:18;;;;;;;6.47;3.75;;;14.20;99.90;;;14.46;81.51;101023.84;4844334;29;20166;-72
2021/10/04 03:52:47;;;;;;;;;;;14.20;99.90;;;14.49;81.15;101038.88;4844833;29;20473;-72
2021/10/04 03:55:17;;;;;;;7.53;3.63;;;14.30;99.90;;;14.01;81.25;100989.13;4844524;29;20042;-72
2021/10/04 03:57:46;;;;;;;8.48;4.00;;;14.20;99.90;;;14.49;81.06;101046.88;4844469;29;20457;-72
2021/10/04 04:00:23;;;;;;;8.95;4.05;;;14.20;99.90;;;14.48;80.93;101039.78;4844505;29;20396;-72
2021/10/04 04:02:52;;;;;;;10.55;4.22;;;14.20;99.90;;;14.42;81.11;101045.19;4844456;29;20054;-72
2021/10/04 04:05:26;;;;;;;8.07;4.43;;;14.10;99.90;;;14.44;80.95;101043.41;4843319;29;20085;-74
2021/10/04 04:07:54;;;;;;;5.30;3.85;;;14.10;99.90;;;14.16;80.82;101008.38;4844298;29;20453;-82
2021/10/04 04:10:23;;;;;;;10.02;3.70;;;14.10;99.90;;;14.44;80.73;101043.41;4844392;29;20041;-72
2021/10/04 04:12:51;;;;;;;7.32;3.50;;;14.10;99.90;;;14.25;80.64;100988.69;4843979;29;20046;-73
2021/10/04 04:15:21;;;;;;;8.40;4.40;;;14.20;99.90;;;14.55;80.41;101043.22;4844453;29;20428;-74
2021/10/04 04:17:50;;;;;;;10.43;4.00;;;14.20;99.90;;;14.48;79.55;101031.78;4844175;29;20396;-76
2021/10/04 04:20:19;;;;;;;9.18;3.65;;;14.20;99.90;;;14.57;79.49;101044.97;4843850;29;20077;-72
2021/10/04 04:22:47;;;;;;;7.05;4.13;;;14.30;99.90;;;14.52;79.52;101038.81;4843755;29;20050;-71
2021/10/04 04:25:16;;;;;;;7.93;3.45;;;14.30;99.90;;;14.62;79.44;101048.41;4844061;29;20077;-73
2021/10/04 04:27:45;;;;;;;10.20;4.10;;;14.30;99.90;;;14.34;79.12;101018.72;4842637;29;20054;-73
2021/10/04 04:30:15;;;;;;;8.85;3.60;;;14.20;99.90;;;14.60;79.19;101052.88;4843765;29;20066;-74
2021/10/04 04:32:45;;;;;;;6.03;3.37;;;14.30;99.90;;;14.55;78.94;101061.84;4843951;29;20046;-73
2021/10/04 04:35:14;;;;;;;7.70;3.47;;;14.30;99.90;;;14.45;78.85;101048.72;4843929;29;20411;-74
2021/10/04 04:37:43;;;;;;;8.27;4.10;;;14.20;99.90;;;14.48;78.40;101061.94;4843806;29;20464;-73
2021/10/04 04:40:15;;;;;;;16.35;4.25;;;14.20;99.90;;;14.47;78.56;101059.31;4843500;29;20050;-73
2021/10/04 04:42:45;;;;;;;8.65;4.07;;;14.20;99.90;;;14.36;78.58;101050.66;4842487;29;20145;-73
2021/10/04 04:45:18;;;;;;;10.00;4.20;;;14.20;99.90;;;14.41;78.78;101072.72;4842107;29;20108;-73
2021/10/04 04:47:49;;;;;;;9.20;4.00;;;14.20;99.90;;;14.06;79.00;101035.16;4843672;29;20073;-73
2021/10/04 04:50:19;;;;;;;7.00;3.85;;;14.10;99.90;;;14.24;79.26;101080.09;4843479;29;20053;-73
2021/10/04 04:52:49;;;;;;;10.13;4.40;;;14.00;99.90;;;14.00;79.17;101073.34;4843522;29;20465;-73
2021/10/04 04:55:18;;;;;;;8.95;3.83;;;13.90;99.90;;;13.91;79.99;101085.91;4843346;29;20144;-73
2021/10/04 04:57:47;;;;;;;12.50;4.20;;;13.80;99.90;;;13.70;80.59;101073.81;4843101;29;20046;-73
2021/10/04 05:00:16;;;;;;;16.42;4.38;;;13.70;99.90;;;13.71;81.47;101077.31;4843103;29;20053;-74
2021/10/04 05:02:46;;;;;;;5.75;3.72;;;13.50;99.90;;;13.72;81.90;101071.13;4843146;29;20054;-73
2021/10/04 05:05:19;;;;;;;7.13;4.25;;;13.60;99.90;;;13.65;82.51;101075.63;4843296;29;20046;-73
2021/10/04 05:07:48;;;;;;;9.52;4.18;;;13.60;99.90;;;13.74;82.18;101077.31;4843259;29;20046;-74
2021/10/04 05:10:17;;;;;;;8.88;3.97;;;13.60;99.90;;;13.04;82.39;100963.13;4842979;29;20058;-73
2021/10/04 05:12:45;;;;;;;10.00;4.88;;;13.60;99.90;;;13.53;83.31;101065.16;4842920;29;20110;-73
2021/10/04 05:15:14;;;;;;;9.55;4.50;;;13.50;99.90;;;13.61;83.46;101094.31;4842853;29;20070;-73
2021/10/04 05:17:42;;;;;;;7.15;3.97;;;13.50;99.90;;;13.55;83.70;101085.50;4842952;29;20049;-74
2021/10/04 05:20:13;;;;;;;8.32;4.38;;;13.50;99.90;;;13.71;83.82;101110.13;4843067;29;20145;-73
2021/10/04 05:22:43;;;;;;;9.82;4.03;;;13.50;99.90;;;13.81;83.58;101117.06;4842848;29;20046;-73
2021/10/04 05:25:12;;;;;;;11.88;4.35;;;13.60;99.90;;;13.70;83.13;101094.19;4842731;29;20102;-73
2021/10/04 05:27:41;;;;;;;8.82;4.55;;;13.60;99.90;;;13.74;83.23;101123.38;4842895;29;20060;-73
2021/10/04 05:30:12;;;;;;;11.35;4.38;;;13.60;99.90;;;12.75;83.12;100950.19;4842631;29;20148;-73
2021/10/04 05:32:41;;;;;;;11.38;4.22;;;13.60;99.90;;;13.82;83.41;101107.34;4842728;29;20128;-73
2021/10/04 05:35:12;;;;;;;8.55;4.43;;;13.60;99.90;;;13.02;83.30;100983.47;4842604;29;20077;-73
2021/10/04 05:37:42;;;;;;;9.23;4.13;;;13.70;99.90;;;13.69;83.08;101085.34;4842585;29;20385;-73
2021/10/04 05:40:13;;;;;;;9.23;4.10;;;13.70;99.90;;;13.79;82.77;101125.97;4842718;29;20189;-73
2021/10/04 05:42:41;;;;;;;;;;;13.70;99.90;;;13.75;83.45;101126.91;4842270;29;20098;-74
2021/10/04 05:45:12;;;;;;;11.05;4.32;;;13.60;99.90;;;13.85;82.93;101126.78;4842313;29;20440;-73
2021/10/04 05:47:41;;;;;;;10.82;4.35;;;13.70;99.90;;;12.96;82.96;101003.00;4842514;29;20058;-74
2021/10/04 05:50:11;;;;;;;10.48;4.75;;;13.60;99.90;;;13.75;83.14;101134.88;4842820;29;20054;-73
2021/10/04 05:52:40;;;;;;;15.20;4.57;;;13.60;99.90;;;13.65;83.46;101146.53;4842544;29;20050;-73
2021/10/04 05:55:11;;;;;;;10.82;4.65;;;13.50;99.90;;;13.56;84.17;101150.19;4842505;29;20126;-73
2021/10/04 05:57:40;;;;;;;10.57;4.20;;;13.50;99.90;;;13.61;84.63;101153.66;4842102;29;20053;-73
2021/10/04 06:00:12;;;;;;;10.15;4.22;;;13.40;99.90;;;13.66;84.24;101161.59;4842507;29;20045;-73
2021/10/04 06:02:41;;;;;;;10.82;4.28;;;13.40;99.90;;;13.56;84.06;101142.22;4842447;29;20053;-74
2021/10/04 06:05:11;;;;;;;11.13;4.55;;;13.50;99.90;;;13.35;85.03;101161.97;4842594;29;20050;-73
2021/10/04 06:07:39;;;;;;;11.77;4.60;;;13.30;99.90;;;13.15;85.53;101160.41;4842264;29;20420;-73
2021/10/04 06:10:11;;;;;;;13.60;4.88;;;13.10;99.90;;;13.10;86.24;101165.78;4842302;29;20050;-73
2021/10/04 06:12:41;;;;;;;10.20;5.05;;;13.00;99.90;;;12.92;87.06;101135.81;4842551;29;20070;-73
2021/10/04 06:15:13;;;;;;;11.48;5.15;;;13.00;99.90;;;13.02;87.14;101169.34;4842007;29;20049;-72
2021/10/04 06:17:43;;;;;;;11.27;5.38;;;13.00;99.90;;;13.04;87.63;101167.59;4842129;29;20488;-75
2021/10/04 06:20:13;;;;;;;12.32;5.47;;;12.90;99.90;;;13.04;87.84;101165.81;4842363;29;20049;-75
2021/10/04 06:22:42;;;;;;;11.00;5.10;;;13.00;99.90;;;13.04;87.57;101203.00;4842418;29;20048;-75
2021/10/04 06:25:14;;;;;;;10.50;5.30;;;12.90;99.90;;;13.05;87.84;101172.00;4842389;29;20377;-75
2021/10/04 06:27:45;;;;;;;10.77;5.57;;;12.90;99.90;;;12.84;87.99;101157.13;4842630;29;20121;-73
2021/10/04 06:30:15;;;;;;;11.55;5.13;;;12.90;99.90;;;12.80;88.01;101176.63;4842273;29;20046;-74
2021/10/04 06:32:44;;;;;;;10.13;5.07;;;12.80;99.90;;;12.77;88.36;101176.66;4842274;29;20476;-74
2021/10/04 06:35:14;;;;;;;11.52;4.88;;;12.70;99.90;;;12.42;88.16;101118.56;4842004;29;20400;-72
2021/10/04 06:37:43;;;;;;;9.40;5.22;;;12.80;99.90;;;12.12;88.04;101063.09;4842036;29;20048;-73
2021/10/04 06:40:16;;;;;;;12.07;5.00;;;12.90;99.90;;;13.02;88.01;101191.47;4841132;29;20045;-76
2021/10/04 06:42:46;;;;;;;9.25;4.65;;;12.90;99.90;;;12.99;88.11;101172.03;4842459;29;20042;-75
2021/10/04 06:45:16;;;;;;;14.07;5.25;;;13.00;99.90;;;13.19;87.22;101149.72;4842015;29;20077;-75
2021/10/04 06:47:45;;;;;;;12.02;4.88;;;13.20;99.90;;;13.50;86.06;101171.53;4841809;29;20050;-76
2021/10/04 06:50:14;;;;;;;10.07;4.97;;;13.40;99.90;;;13.82;85.38;101181.78;4841848;29;20120;-76
2021/10/04 06:52:43;;;;;;;11.65;5.22;;;13.60;99.90;;;13.97;83.95;101182.47;4840951;29;20083;-76
2021/10/04 06:55:13;;;;;;;9.73;5.03;;;13.80;99.90;;;13.93;83.41;101187.84;4845447;29;20074;-76
2021/10/04 06:57:42;;;;;;;10.90;4.95;;;13.90;99.90;;;14.04;83.32;101186.78;4844548;29;20046;-77
2021/10/04 07:00:19;;;;;;;7.38;4.95;;;13.90;99.90;;;14.15;82.58;101206.13;4845695;29;20133;-76
2021/10/04 07:02:48;;;;;;;9.20;4.85;;;14.00;99.90;;;14.45;82.07;101202.19;4845551;29;20114;-74
2021/10/04 07:05:18;;;;;;;11.65;5.13;;;14.30;99.90;;;14.50;81.26;101203.00;4845227;29;20466;-74
2021/10/04 07:07:47;;;;;;;9.00;4.60;;;14.40;99.90;;;14.71;80.82;101210.66;4845735;29;20045;-74
2021/10/04 07:10:18;;;;;;;13.57;4.18;;;14.60;99.90;;;14.67;79.75;101211.63;4845302;29;20050;-74
2021/10/04 07:12:46;;;;;;;7.15;4.03;;;14.60;99.90;;;14.87;79.57;101204.19;4845091;29;20106;-73
2021/10/04 07:15:15;;;;;;;13.07;4.68;;;14.80;99.90;;;14.73;79.01;101168.03;4845518;29;20388;-73
2021/10/04 07:17:45;;;;;;;9.63;5.30;;;15.00;99.90;;;15.08;78.36;101234.91;4845032;29;20117;-72
2021/10/04 07:20:14;;;;;;;9.23;4.63;;;15.00;99.90;;;14.88;78.97;101224.59;4845321;29;20054;-73
2021/10/04 07:22:43;;;;;;;11.82;4.47;;;14.90;99.90;;;15.10;78.85;101227.75;4843644;29;20050;-72
2021/10/04 07:25:13;;;;;;;9.93;4.70;;;15.00;99.90;;;15.14;78.58;101226.81;4844817;29;20504;-73
2021/10/04 07:27:43;;;;;;;11.57;4.93;;;15.00;99.90;;;15.25;78.12;101244.38;4845058;29;20094;-72
2021/10/04 07:30:12;;;;;;;8.75;4.63;;;15.10;99.90;;;15.43;77.59;101237.00;4844990;29;20897;-74
2021/10/04 07:32:41;;;;;;;7.35;4.15;;;15.30;99.90;;;15.30;77.17;101202.53;4844795;29;20492;-74
2021/10/04 07:35:10;;;;;;;12.20;4.80;;;15.30;99.90;;;15.49;76.32;101212.88;4844730;29;20567;-73
2021/10/04 07:37:39;;;;;;;11.52;4.93;;;15.50;99.90;;;15.50;76.49;101212.88;4845041;29;20074;-74
2021/10/04 07:40:10;;;;;;;12.32;4.05;;;15.50;99.90;;;15.71;75.07;101230.25;4845077;29;20072;-74
2021/10/04 07:42:39;;;;;;;9.43;4.10;;;15.60;99.90;;;15.72;75.12;101224.88;4844720;29;20407;-74
2021/10/04 07:45:10;;;;;;;9.10;4.20;;;15.60;99.90;;;15.25;74.40;101137.75;4844783;29;20062;-75
2021/10/04 07:47:39;;;;;;;18.75;4.68;;;15.70;99.90;;;16.04;74.87;101234.91;4843719;29;20076;-73
2021/10/04 07:50:10;;;;;;;10.70;4.60;;;15.90;99.90;;;16.19;73.11;101230.13;4844488;29;20084;-75
2021/10/04 07:52:39;;;;;;;9.70;3.95;;;16.10;99.90;;;15.64;73.43;101111.28;4844374;29;20050;-74
2021/10/04 07:55:11;;;;;;;9.57;4.30;;;16.10;99.90;;;16.44;73.09;101250.91;4844617;29;20042;-74
2021/10/04 07:57:40;;;;;;;6.82;4.00;;;16.30;99.90;;;16.13;73.35;101248.03;4844345;29;20046;-75
2021/10/04 08:00:11;;;;;;;8.60;4.40;;;16.10;99.90;;;15.79;74.06;101237.19;4843303;29;20046;-74
2021/10/04 08:02:39;;;;;;;8.68;4.13;;;15.80;99.90;;;15.63;74.50;101256.16;4844757;29;20161;-74
2021/10/04 08:05:09;;;;;;;10.90;4.63;;;15.60;99.90;;;15.81;74.14;101271.84;4843759;29;20049;-74
2021/10/04 08:07:38;;;;;;;10.48;3.95;;;15.70;99.90;;;15.81;74.94;101255.81;4843980;29;20420;-74
2021/10/04 08:10:09;;;;;;;9.38;4.72;;;15.70;99.90;;;15.54;74.94;101275.00;4844171;29;20132;-74
2021/10/04 08:12:38;;;;;;;11.15;4.63;;;15.50;99.90;;;15.74;75.18;101232.81;4844365;29;20164;-75
2021/10/04 08:15:09;;;;;;;7.32;4.03;;;15.60;99.90;;;15.68;74.98;101252.50;4844398;29;20081;-74
2021/10/04 08:17:38;;;;;;;10.02;4.50;;;15.70;99.90;;;16.10;74.16;101274.81;4844251;29;20049;-74
2021/10/04 08:20:09;;;;;;;10.43;4.10;;;15.90;99.90;;;16.18;73.80;101262.19;4843859;29;20500;-74
2021/10/04 08:22:39;;;;;;;16.92;4.55;;;16.00;99.90;;;16.41;72.88;101265.25;4844161;29;20045;-74
2021/10/04 08:25:11;;;;;;;8.57;3.92;;;16.20;99.90;;;16.47;72.77;101258.88;4843768;29;20049;-73
2021/10/04 08:27:41;;;;;;;8.90;3.97;;;16.40;99.90;;;16.49;71.98;101263.28;4842407;29;20073;-73
2021/10/04 08:30:13;;;;;;;10.40;4.40;;;16.40;99.90;;;16.42;71.09;101239.38;4842413;29;20054;-73
2021/10/04 08:32:42;;;;;;;7.28;4.07;;;16.40;99.90;;;16.60;71.65;101263.06;4843957;29;20128;-75
2021/10/04 08:35:11;;;;;;;10.32;4.75;;;16.40;99.90;;;16.48;71.65;101248.19;4843865;29;20069;-73
2021/10/04 08:37:40;;;;;;;12.02;5.15;;;16.40;99.90;;;16.23;73.03;101254.94;4843614;29;20046;-75
2021/10/04 08:40:12;;;;;;;8.05;4.05;;;16.20;99.90;;;16.18;73.05;101246.16;4844042;29;20054;-74
2021/10/04 08:42:41;;;;;;;10.82;5.03;;;16.20;99.90;;;16.31;73.20;101242.31;4843443;29;20069;-73
2021/10/04 08:45:12;;;;;;;13.25;5.47;;;16.20;99.90;;;16.72;72.51;101244.09;4841940;29;20065;-74
2021/10/04 08:47:41;;;;;;;13.13;5.57;;;16.50;99.90;;;16.42;72.42;101231.38;4842549;29;20148;-74
2021/10/04 08:50:14;;;;;;;9.07;5.05;;;16.50;99.90;;;16.69;72.24;101258.38;4843165;29;20038;-73
2021/10/04 08:52:43;;;;;;;14.63;5.00;;;16.60;99.90;;;16.49;72.19;101158.28;4843209;29;20416;-74
2021/10/04 08:55:12;;;;;;;13.85;5.97;;;16.70;99.90;;;16.53;72.27;101256.97;4843327;29;20065;-73
2021/10/04 08:57:40;;;;;;;15.63;5.25;;;16.60;99.90;;;16.64;73.24;101257.63;4843366;29;20046;-74
2021/10/04 09:00:12;;;;;;;13.70;5.25;;;16.50;99.90;;;16.82;72.46;101245.63;4843316;29;20057;-74
2021/10/04 09:02:41;;;;;;;18.85;5.20;;;16.60;99.90;;;17.23;70.96;101274.03;4843022;29;20512;-73
2021/10/04 09:05:23;;;;;;;12.48;5.10;;;17.00;99.90;;;17.29;69.88;101269.38;4843004;29;20053;-74
2021/10/04 09:07:54;;;;;;;12.70;5.20;;;17.10;99.90;;;17.60;69.58;101270.38;4842103;29;20122;-74
2021/10/04 09:10:27;;;;;;;13.63;5.53;;;17.40;99.90;;;17.82;68.20;101262.63;4841997;29;20149;-74
2021/10/04 09:12:59;;;;;;;14.43;5.75;;;17.60;99.90;;;17.64;68.10;101242.63;4843265;29;20053;-74
2021/10/04 09:15:33;;;;;;;12.13;4.35;;;17.70;99.90;;;17.94;67.56;101257.81;4841643;29;20058;-74
2021/10/04 09:18:04;;;;;;;13.10;5.70;;;17.90;99.90;;;17.85;67.80;101278.59;4842578;29;20050;-73
2021/10/04 09:20:58;;;;;;;14.68;4.80;;;17.70;99.90;;;18.06;68.03;101286.03;4841708;29;20110;-74
2021/10/04 09:23:44;;;;;;;14.90;5.03;;;17.80;99.90;;;18.17;67.07;101275.03;4841803;29;20046;-73
2021/10/04 09:26:33;;;;;;;18.77;5.18;;;18.00;99.90;;;18.02;67.62;101266.50;4843231;29;20045;-72
2021/10/04 09:29:06;;;;;;;10.35;4.68;;;18.00;99.90;;;18.03;66.11;101265.59;4841702;29;20058;-74
2021/10/04 09:31:38;;;;;;;17.52;4.90;;;18.00;99.90;;;18.06;66.50;101229.81;4842646;29;20102;-73
2021/10/04 09:34:13;;;;;;;12.73;5.30;;;18.20;99.90;;;18.43;66.21;101276.03;4842957;29;20060;-74
2021/10/04 09:36:44;;;;;;;19.80;5.30;;;18.30;99.90;;;18.32;65.10;101278.13;4842721;29;20110;-73
2021/10/04 09:39:23;;;;;;;18.65;5.10;;;18.20;99.90;;;18.17;65.23;101270.56;4842567;29;20389;-75
2021/10/04 09:42:08;;;;;;;12.38;4.40;;;18.10;99.90;;;18.10;65.02;101285.03;4842682;29;20472;-73
2021/10/04 09:44:51;;;;;;;17.42;4.32;;;18.00;99.90;;;17.98;65.58;101280.88;4842220;29;20061;-74
2021/10/04 09:47:25;;;;;;;16.60;4.88;;;17.90;99.90;;;17.91;66.62;101265.03;4842497;29;20102;-72
2021/10/04 09:50:12;;;;;;;13.63;4.45;;;17.80;99.90;;;18.27;66.41;101300.63;4842447;29;20038;-73
2021/10/04 09:52:46;;;;;;;10.00;4.88;;;18.00;99.90;;;18.23;65.51;101251.63;4842772;29;20412;-73
2021/10/04 09:55:23;;;;;;;13.18;4.35;;;18.10;99.90;;;18.17;65.44;101283.06;4856935;29;20054;-73
2021/10/04 09:58:03;;;;;;;12.20;5.15;;;18.00;99.90;;;18.05;66.19;101286.97;4841545;29;20712;-73
2021/10/04 10:00:37;;;;;;;14.68;5.18;;;17.90;99.90;;;18.04;66.36;101286.06;4842960;29;20064;-73
2021/10/04 10:03:10;;;;;;;14.20;4.85;;;17.90;99.90;;;18.12;67.24;101293.03;4842777;29;20128;-73
2021/10/04 10:05:41;;;;;;;10.82;5.30;;;17.90;99.90;;;18.05;67.92;101292.31;4842351;29;20560;-73
2021/10/04 10:08:11;;;;;;;12.00;4.70;;;17.80;99.90;;;18.23;66.84;101307.88;4842509;29;20508;-74
2021/10/04 10:10:43;;;;;;;14.43;5.05;;;18.10;99.90;;;18.04;66.66;101306.59;4842067;29;20050;-72
2021/10/04 10:13:15;;;;;;;13.75;4.40;;;18.00;99.90;;;17.75;67.75;101293.19;4842169;29;20054;-71
2021/10/04 10:15:47;;;;;;;15.90;5.07;;;17.70;99.90;;;18.25;67.82;101287.28;4842323;29;20079;-71
2021/10/04 10:18:22;;;;;;;13.07;4.93;;;18.00;99.90;;;18.33;67.17;101281.69;4841215;29;20081;-73
2021/10/04 10:20:57;;;;;;;10.68;4.63;;;18.10;99.90;;;18.31;66.23;101302.28;4841109;29;20058;-75
2021/10/04 10:23:46;;;;;;;13.18;4.22;;;18.20;99.90;;;18.21;66.85;101315.06;4842238;29;20394;-75